Time;durP1;ratioP1;P1;durP2;ratioP2;P2;SDS_P1;SDS_P2;PMS_P1;PMS_P2;Temp;Humidity;BMP_temperature;BMP_pressure;BME280_temperature;BME280_humidity;BME280_pressure;Samples;Min_cycle;Max_cycle;Signal;HPM_P1;HPM_P2
2023/06/22 00:01:44;;;;;;;9.95;5.57;;;;;;;19.94;100.00;101829.19;5202639;28;20028;-70
2023/06/22 00:04:15;;;;;;;10.52;5.93;;;;;;;19.82;100.00;101832.50;5202595;28;20036;-70
2023/06/22 00:06:45;;;;;;;10.95;5.45;;;;;;;19.66;100.00;101835.56;5201799;28;20021;-70
2023/06/22 00:09:16;;;;;;;10.02;5.15;;;;;;;19.49;100.00;101835.03;5202331;28;20030;-70
2023/06/22 00:11:46;;;;;;;12.38;6.10;;;;;;;19.37;100.00;101831.19;5202380;28;20495;-70
2023/06/22 00:14:17;;;;;;;9.27;6.55;;;;;;;19.32;100.00;101828.22;5202371;28;20025;-70
2023/06/22 00:16:48;;;;;;;10.68;6.30;;;;;;;19.28;100.00;101822.38;5201927;28;20064;-70
2023/06/22 00:19:19;;;;;;;11.00;5.93;;;;;;;19.29;100.00;101825.94;5202464;28;20021;-70
2023/06/22 00:21:53;;;;;;;12.55;5.63;;;;;;;19.31;100.00;101824.69;5202642;28;20021;-70
2023/06/22 00:24:24;;;;;;;11.70;6.63;;;;;;;19.30;100.00;101830.31;5202730;28;20562;-70
2023/06/22 00:26:54;;;;;;;10.68;6.07;;;;;;;19.32;100.00;101829.06;5201973;28;20021;-70
2023/06/22 00:29:25;;;;;;;9.90;6.10;;;;;;;19.32;100.00;101829.06;5202598;28;20609;-70
2023/06/22 00:31:55;;;;;;;11.07;6.13;;;;;;;19.33;100.00;101829.94;5200711;28;20037;-70
2023/06/22 00:34:26;;;;;;;10.25;6.28;;;;;;;19.33;100.00;101811.72;5202574;28;20025;-70
2023/06/22 00:36:56;;;;;;;10.18;6.18;;;;;;;19.29;100.00;101807.72;5202185;28;20029;-70
2023/06/22 00:39:26;;;;;;;11.43;6.78;;;;;;;19.28;100.00;101802.50;5217663;28;20026;-70
2023/06/22 00:41:57;;;;;;;11.07;6.18;;;;;;;19.21;100.00;101805.16;5202256;28;20030;-70
2023/06/22 00:44:27;;;;;;;12.18;7.00;;;;;;;19.17;100.00;101812.03;5205411;28;20021;-70
2023/06/22 00:47:00;;;;;;;11.70;7.05;;;;;;;19.13;100.00;101810.78;5220815;28;20025;-70
2023/06/22 00:49:30;;;;;;;13.73;7.40;;;;;;;19.12;100.00;101803.63;5206241;28;20104;-70
2023/06/22 00:52:01;;;;;;;14.07;7.00;;;;;;;19.08;100.00;101818.69;5206802;28;20151;-70
2023/06/22 00:54:32;;;;;;;10.70;6.75;;;;;;;19.10;100.00;101811.16;5205783;28;20049;-70
2023/06/22 00:57:03;;;;;;;12.73;6.45;;;;;;;19.23;100.00;101805.81;5205356;28;20530;-70
2023/06/22 00:59:34;;;;;;;12.32;7.05;;;;;;;19.30;100.00;101808.56;5205763;28;20505;-70
2023/06/22 01:02:05;;;;;;;12.25;6.85;;;;;;;19.33;100.00;101811.72;5206500;28;20018;-70
2023/06/22 01:04:37;;;;;;;10.38;6.20;;;;;;;19.36;100.00;101816.75;5206053;28;20026;-70
2023/06/22 01:07:25;;;;;;;13.38;6.68;;;;;;;19.34;100.00;101813.41;5205331;28;20071;-70
2023/06/22 01:10:18;;;;;;;12.73;7.18;;;;;;;19.31;100.00;101808.34;5206034;28;20378;-70
2023/06/22 01:12:53;;;;;;;14.10;7.63;;;;;;;19.33;100.00;101808.16;5205685;28;20391;-70
2023/06/22 01:15:45;;;;;;;11.25;6.65;;;;;;;19.37;100.00;101809.44;5205537;28;20060;-70
2023/06/22 01:18:18;;;;;;;10.52;7.45;;;;;;;19.37;100.00;101810.25;5205137;28;20288;-70
2023/06/22 01:20:50;;;;;;;11.60;6.18;;;;;;;19.40;100.00;101807.16;5205558;28;20487;-70
2023/06/22 01:24:10;;;;;;;13.70;7.50;;;;;;;19.42;100.00;101810.50;5204330;28;20130;-70
2023/06/22 01:26:53;;;;;;;10.07;6.85;;;;;;;19.49;100.00;101816.00;5204781;28;20060;-70
2023/06/22 01:29:26;;;;;;;12.05;7.47;;;;;;;19.50;100.00;101819.56;5205373;28;20025;-70
2023/06/22 01:31:59;;;;;;;10.68;7.05;;;;;;;19.47;100.00;101814.50;5205322;28;20383;-70
2023/06/22 01:34:31;;;;;;;11.68;8.00;;;;;;;19.47;100.00;101806.34;5205131;28;20021;-70
2023/06/22 01:37:03;;;;;;;12.40;6.78;;;;;;;19.51;100.00;101810.34;5204712;28;20021;-70
2023/06/22 01:39:34;;;;;;;11.38;6.57;;;;;;;19.46;100.00;101800.06;5205060;28;20025;-70
2023/06/22 01:42:06;;;;;;;13.32;6.95;;;;;;;19.38;100.00;101800.25;5205229;28;20030;-70
2023/06/22 01:44:37;;;;;;;13.55;8.15;;;;;;;19.30;100.00;101792.25;5204671;28;20395;-70
2023/06/22 01:47:09;;;;;;;11.95;7.05;;;;;;;19.28;100.00;101803.31;5204468;28;20021;-70
2023/06/22 01:49:40;;;;;;;10.27;6.18;;;;;;;19.25;100.00;101787.41;5205023;28;20029;-70
2023/06/22 01:52:12;;;;;;;12.10;7.10;;;;;;;19.27;100.00;101784.47;5205122;28;20029;-70
2023/06/22 01:54:48;;;;;;;12.68;6.93;;;;;;;19.18;100.00;101781.09;5204862;28;20033;-70
2023/06/22 01:57:18;;;;;;;13.70;7.10;;;;;;;19.10;100.00;101779.34;5204233;28;20041;-70
2023/06/22 02:00:07;;;;;;;13.32;7.03;;;;;;;19.08;100.00;101773.28;5204755;28;20029;-70
2023/06/22 02:02:45;;;;;;;14.10;6.95;;;;;;;19.03;100.00;101780.38;5204850;28;20025;-70
2023/06/22 02:05:18;;;;;;;12.27;7.63;;;;;;;19.03;100.00;101785.81;5203592;28;20056;-70
2023/06/22 02:08:08;;;;;;;15.25;6.95;;;;;;;18.95;100.00;101784.06;5204167;28;20735;-70
2023/06/22 02:10:41;;;;;;;13.35;7.53;;;;;;;18.83;100.00;101789.22;5204379;28;20475;-70
2023/06/22 02:13:14;;;;;;;10.95;6.32;;;;;;;18.83;100.00;101782.94;5204768;28;20483;-70
2023/06/22 02:15:47;;;;;;;14.45;7.07;;;;;;;18.91;100.00;101790.09;5204041;28;20029;-70
2023/06/22 02:18:17;;;;;;;13.00;7.03;;;;;;;18.87;100.00;101793.22;5204176;28;20033;-70
2023/06/22 02:20:48;;;;;;;12.07;6.72;;;;;;;18.84;100.00;101790.91;5204777;28;20028;-70
2023/06/22 02:23:19;;;;;;;13.52;6.63;;;;;;;18.83;100.00;101781.06;5204375;28;20029;-70
2023/06/22 02:25:49;;;;;;;15.30;7.55;;;;;;;18.84;100.00;101780.03;5204044;28;20022;-70
2023/06/22 02:28:21;;;;;;;14.02;7.03;;;;;;;18.82;100.00;101779.38;5204027;28;20025;-70
2023/06/22 02:30:51;;;;;;;10.30;6.72;;;;;;;18.77;100.00;101789.16;5204510;28;20132;-70
2023/06/22 02:33:22;;;;;;;12.05;7.43;;;;;;;18.76;100.00;101787.47;5204415;28;20064;-70
2023/06/22 02:35:52;;;;;;;13.38;7.32;;;;;;;18.70;100.00;101778.25;5204002;28;20025;-70
2023/06/22 02:38:24;;;;;;;13.27;7.10;;;;;;;18.69;100.00;101764.84;5204029;28;20032;-70
2023/06/22 02:40:54;;;;;;;13.50;7.47;;;;;;;18.58;100.00;101764.34;5203879;28;20418;-70
2023/06/22 02:43:25;;;;;;;14.27;7.57;;;;;;;18.55;100.00;101753.00;5204249;28;20036;-70
2023/06/22 02:45:55;;;;;;;12.65;8.25;;;;;;;18.50;100.00;101756.31;5203606;28;20030;-70
2023/06/22 02:48:26;;;;;;;15.32;8.90;;;;;;;18.43;100.00;101760.84;5203814;28;20017;-70
2023/06/22 02:50:56;;;;;;;18.88;9.60;;;;;;;18.41;100.00;101756.66;5204091;28;20033;-70
2023/06/22 02:53:27;;;;;;;16.65;8.88;;;;;;;18.37;100.00;101743.47;5203636;28;20483;-70
2023/06/22 02:55:57;;;;;;;14.98;9.13;;;;;;;18.34;100.00;101743.84;5203541;28;20453;-70
2023/06/22 02:58:28;;;;;;;15.25;8.52;;;;;;;18.31;100.00;101746.94;5203834;28;20025;-70
2023/06/22 03:01:04;;;;;;;15.25;8.93;;;;;;;18.30;100.00;101739.00;5203894;28;20028;-70
2023/06/22 03:03:34;;;;;;;15.05;9.45;;;;;;;18.27;100.00;101725.81;5204025;28;20083;-70
2023/06/22 03:06:05;;;;;;;15.98;10.07;;;;;;;18.28;100.00;101730.22;5202877;28;20037;-70
2023/06/22 03:08:35;;;;;;;17.10;9.27;;;;;;;18.23;100.00;101729.97;5203424;28;20171;-70
2023/06/22 03:11:06;;;;;;;15.13;9.00;;;;;;;18.23;100.00;101728.09;5203602;28;20053;-70
2023/06/22 03:13:36;;;;;;;12.98;7.68;;;;;;;18.20;100.00;101725.75;5203754;28;20142;-70
2023/06/22 03:16:07;;;;;;;14.15;8.85;;;;;;;18.15;100.00;101730.94;5202966;28;20515;-70
2023/06/22 03:18:37;;;;;;;18.27;9.52;;;;;;;18.18;100.00;101719.69;5197601;28;20033;-70
2023/06/22 03:21:07;;;;;;;15.60;9.25;;;;;;;18.16;100.00;101721.75;5203686;28;20029;-70
2023/06/22 03:23:38;;;;;;;15.43;10.23;;;;;;;18.09;100.00;101718.97;5203332;28;20021;-70
2023/06/22 03:26:10;;;;;;;18.50;9.48;;;;;;;18.05;100.00;101727.69;5202959;28;20025;-70
2023/06/22 03:28:40;;;;;;;18.33;9.77;;;;;;;17.99;100.00;101723.88;5203158;28;20021;-70
2023/06/22 03:31:11;;;;;;;14.90;9.60;;;;;;;18.04;100.00;101720.59;5203307;28;20045;-70
2023/06/22 03:33:41;;;;;;;17.67;9.75;;;;;;;18.08;100.00;101733.59;5203473;28;20086;-70
2023/06/22 03:36:12;;;;;;;18.95;10.55;;;;;;;18.07;100.00;101728.34;5202936;28;20025;-70
2023/06/22 03:38:42;;;;;;;18.75;9.98;;;;;;;18.09;100.00;101732.56;5203206;28;20029;-70
2023/06/22 03:41:13;;;;;;;15.25;9.60;;;;;;;18.17;100.00;101725.28;5203064;28;20022;-70
2023/06/22 03:43:43;;;;;;;16.98;10.57;;;;;;;18.20;100.00;101725.75;5203320;28;20079;-70
2023/06/22 03:46:14;;;;;;;19.15;10.98;;;;;;;18.30;100.00;101720.81;5202452;28;20021;-70
2023/06/22 03:48:44;;;;;;;16.50;10.38;;;;;;;18.35;100.00;101718.34;5202979;28;20028;-71
2023/06/22 03:51:15;;;;;;;17.23;10.50;;;;;;;18.42;100.00;101725.72;5203035;28;20024;-70
2023/06/22 03:53:45;;;;;;;17.75;11.07;;;;;;;18.50;100.00;101722.88;5203117;28;20403;-70
2023/06/22 03:56:20;;;;;;;18.98;11.85;;;;;;;18.57;100.00;101721.03;5202473;28;20032;-70
2023/06/22 03:58:50;;;;;;;18.02;11.27;;;;;;;18.61;100.00;101722.31;5203182;28;20029;-70
2023/06/22 04:01:21;;;;;;;19.63;11.82;;;;;;;18.65;100.00;101726.31;5202995;28;20024;-70
2023/06/22 04:03:51;;;;;;;19.80;11.32;;;;;;;18.68;100.00;101723.25;5203124;28;20025;-70
2023/06/22 04:06:22;;;;;;;21.15;11.32;;;;;;;18.69;100.00;101724.94;5193762;28;20021;-70
2023/06/22 04:08:53;;;;;;;23.08;12.52;;;;;;;18.71;100.00;101720.13;5202502;28;20034;-70
2023/06/22 04:11:23;;;;;;;18.63;11.23;;;;;;;18.64;100.00;101717.34;5201632;28;20024;-70
2023/06/22 04:13:53;;;;;;;23.73;13.52;;;;;;;18.69;100.00;101715.94;5202912;28;20116;-70
2023/06/22 04:16:24;;;;;;;19.05;11.55;;;;;;;18.65;100.00;101726.31;5202128;28;20029;-70
2023/06/22 04:18:54;;;;;;;20.95;11.73;;;;;;;18.72;100.00;101718.25;5203213;28;20032;-70
2023/06/22 04:21:25;;;;;;;21.15;12.70;;;;;;;18.73;100.00;101736.25;5206999;28;20029;-70
2023/06/22 04:23:55;;;;;;;21.90;12.85;;;;;;;18.79;100.00;101732.72;5206843;28;20029;-70
2023/06/22 04:26:26;;;;;;;25.00;12.32;;;;;;;18.78;100.00;101733.78;5206400;28;20066;-70
2023/06/22 04:28:56;;;;;;;22.27;12.40;;;;;;;18.81;100.00;101730.66;5206759;28;20022;-70
2023/06/22 04:31:31;;;;;;;20.08;11.93;;;;;;;18.83;100.00;101734.03;5206486;28;20077;-70
2023/06/22 04:36:49;;;;;;;23.17;13.80;;;;;;;18.82;100.00;101732.31;5205974;28;19915;-70
2023/06/22 04:39:20;;;;;;;25.30;13.77;;;;;;;18.83;100.00;101734.03;5206784;28;20013;-70
2023/06/22 04:41:51;;;;;;;20.17;12.68;;;;;;;18.83;100.00;101732.13;5206373;28;20021;-70
2023/06/22 04:47:10;;;;;;;17.85;11.50;;;;;;;18.81;100.00;101728.75;5205936;28;20037;-70
2023/06/22 04:49:43;;;;;;;22.58;12.80;;;;;;;18.86;100.00;101731.72;5206375;28;20017;-70
2023/06/22 04:52:20;;;;;;;20.67;12.07;;;;;;;18.83;100.00;101717.72;5206281;28;20434;-70
2023/06/22 04:54:55;;;;;;;21.20;12.55;;;;;;;18.88;100.00;101726.09;5206647;28;20490;-70
2023/06/22 04:57:31;;;;;;;;;;;;;;;18.90;100.00;101724.00;5206173;28;20052;-70
2023/06/22 05:00:13;;;;;;;18.70;12.63;;;;;;;19.00;100.00;101720.94;5206583;28;20358;-70
2023/06/22 05:02:45;;;;;;;20.17;13.20;;;;;;;19.06;100.00;101722.84;5204821;28;20034;-70
2023/06/22 05:05:16;;;;;;;21.70;12.70;;;;;;;19.06;100.00;101728.28;5206291;28;20101;-70
2023/06/22 05:07:50;;;;;;;20.58;12.95;;;;;;;19.15;100.00;101727.09;5205733;28;20056;-71
2023/06/22 05:10:21;;;;;;;19.77;12.40;;;;;;;19.20;100.00;101735.47;5206380;28;20124;-70
2023/06/22 05:12:51;;;;;;;23.52;13.27;;;;;;;19.25;100.00;101733.00;5204531;28;20021;-71
2023/06/22 05:15:26;;;;;;;25.33;13.70;;;;;;;19.25;100.00;101734.88;5204407;28;20402;-71
2023/06/22 05:17:58;;;;;;;20.73;13.35;;;;;;;19.37;100.00;101735.97;5204172;28;20033;-70
2023/06/22 05:20:28;;;;;;;23.40;13.60;;;;;;;19.41;100.00;101748.97;5204691;28;20115;-70
2023/06/22 05:22:59;;;;;;;23.48;13.27;;;;;;;19.39;100.00;101753.78;5204582;28;20017;-70
2023/06/22 05:25:30;;;;;;;24.27;14.75;;;;;;;19.48;100.00;101745.41;5204036;28;20033;-71
2023/06/22 05:28:01;;;;;;;26.13;13.77;;;;;;;19.55;100.00;101754.47;5204289;28;20032;-71
2023/06/22 05:30:31;;;;;;;22.17;13.32;;;;;;;19.61;100.00;101753.69;5204182;28;20462;-70
2023/06/22 05:33:02;;;;;;;23.88;13.13;;;;;;;19.67;100.00;101756.41;5204582;28;20097;-71
2023/06/22 05:35:32;;;;;;;24.90;15.38;;;;;;;19.72;100.00;101755.81;5204403;28;20491;-71
2023/06/22 05:38:02;;;;;;;27.08;15.60;;;;;;;19.72;100.00;101755.81;5203681;28;20036;-71
2023/06/22 05:43:19;;;;;;;27.58;14.90;;;;;;;19.87;100.00;101755.63;5204424;28;20100;-70
2023/06/22 05:45:50;;;;;;;20.70;14.65;;;;;;;19.80;100.00;101755.63;5203865;28;20029;-71
2023/06/22 05:48:20;;;;;;;22.15;14.60;;;;;;;19.79;100.00;101756.69;5203800;28;20079;-71
2023/06/22 05:50:51;;;;;;;21.65;13.95;;;;;;;19.78;100.00;101760.44;5204109;28;20030;-71
2023/06/22 05:53:22;;;;;;;26.20;15.48;;;;;;;19.77;100.00;101758.75;5204254;28;20025;-71
2023/06/22 05:55:52;;;;;;;26.42;14.75;;;;;;;19.79;100.00;101762.13;5203681;28;20051;-71
2023/06/22 05:58:23;;;;;;;23.48;13.98;;;;;;;19.76;100.00;101754.34;5204215;28;20026;-71
2023/06/22 06:00:53;;;;;;;23.45;15.18;;;;;;;19.73;100.00;101754.78;5203718;28;20022;-71
2023/06/22 06:03:24;;;;;;;22.42;14.52;;;;;;;19.63;100.00;101751.63;5204200;28;20037;-71
2023/06/22 06:05:54;;;;;;;27.85;16.08;;;;;;;19.66;100.00;101756.63;5203512;28;20021;-71
2023/06/22 06:08:29;;;;;;;22.90;14.45;;;;;;;19.70;100.00;101749.75;5196962;28;20029;-71
2023/06/22 06:11:00;;;;;;;26.52;14.68;;;;;;;19.76;100.00;101742.63;5175549;28;1144940;-71
2023/06/22 06:13:30;;;;;;;25.63;15.15;;;;;;;19.78;100.00;101738.66;5203075;28;20029;-71
2023/06/22 06:16:01;;;;;;;28.38;14.90;;;;;;;19.78;100.00;101732.38;5202807;28;20025;-71
2023/06/22 06:18:31;;;;;;;25.98;15.90;;;;;;;19.67;100.00;101733.81;5203889;28;20021;-70
2023/06/22 06:21:02;;;;;;;34.75;18.58;;;;;;;19.71;100.00;101739.69;5216133;28;20025;-70
2023/06/22 06:23:32;;;;;;;28.77;15.40;;;;;;;19.75;100.00;101733.63;5202941;28;20048;-71
2023/06/22 06:26:06;;;;;;;26.63;16.98;;;;;;;19.79;100.00;101732.19;5202362;28;20025;-71
2023/06/22 06:28:37;;;;;;;27.83;17.10;;;;;;;19.86;100.00;101729.47;5203231;28;20025;-71
2023/06/22 06:31:08;;;;;;;29.00;17.13;;;;;;;19.91;100.00;101716.91;5203230;28;20031;-71
2023/06/22 06:33:39;;;;;;;26.15;18.00;;;;;;;19.99;100.00;101712.31;5202916;28;20025;-70
2023/06/22 06:36:10;;;;;;;25.42;16.55;;;;;;;20.10;100.00;101714.41;5201149;28;20083;-70
2023/06/22 06:38:41;;;;;;;32.17;18.20;;;;;;;20.21;100.00;101702.88;5202566;28;20405;-71
2023/06/22 06:41:11;;;;;;;26.75;17.73;;;;;;;20.32;100.00;101701.41;5202274;28;20083;-71
2023/06/22 06:43:43;;;;;;;29.45;18.17;;;;;;;20.46;100.00;101694.09;5202799;28;20022;-70
2023/06/22 06:46:13;;;;;;;32.05;18.52;;;;;;;20.58;100.00;101687.81;5202230;28;20057;-70
2023/06/22 06:48:44;;;;;;;32.10;18.25;;;;;;;20.72;100.00;101685.88;5202439;28;20099;-71
2023/06/22 06:51:14;;;;;;;30.73;19.80;;;;;;;20.85;100.00;101680.41;5202486;28;20491;-70
2023/06/22 06:53:45;;;;;;;29.75;18.85;;;;;;;20.93;100.00;101685.66;5202551;28;20445;-70
2023/06/22 06:56:16;;;;;;;30.77;18.67;;;;;;;21.04;100.00;101694.22;5202059;28;20052;-71
2023/06/22 06:58:49;;;;;;;33.38;18.48;;;;;;;21.10;100.00;101686.00;5202833;28;20100;-71
2023/06/22 07:01:20;;;;;;;27.92;16.75;;;;;;;21.20;100.00;101685.53;5201977;28;20018;-71
2023/06/22 07:03:50;;;;;;;32.00;18.88;;;;;;;21.26;100.00;101676.47;5202386;28;20021;-70
2023/06/22 07:06:21;;;;;;;33.42;18.20;;;;;;;21.28;100.00;101671.63;5201750;28;20026;-71
2023/06/22 07:08:51;;;;;;;30.95;19.33;;;;;;;21.39;100.00;101665.53;5202571;28;20029;-71
2023/06/22 07:11:22;;;;;;;29.20;18.92;;;;;;;21.45;100.00;101653.75;5202292;28;20057;-70
2023/06/22 07:13:52;;;;;;;31.67;17.92;;;;;;;21.51;100.00;101656.66;5201913;28;20025;-71
2023/06/22 07:16:25;;;;;;;28.60;18.73;;;;;;;21.46;100.00;101644.50;5201632;28;20021;-70
2023/06/22 07:18:55;;;;;;;31.50;19.13;;;;;;;21.52;100.00;101644.69;5202023;28;20510;-71
2023/06/22 07:21:26;;;;;;;40.03;20.23;;;;;;;21.54;100.00;101639.84;5202346;28;20025;-70
2023/06/22 07:23:56;;;;;;;28.40;19.13;;;;;;;21.52;100.00;101631.03;5201651;28;20036;-71
2023/06/22 07:26:27;;;;;;;31.85;19.90;;;;;;;21.55;100.00;101622.41;5201360;28;20032;-71
2023/06/22 07:28:57;;;;;;;30.70;18.83;;;;;;;21.58;100.00;101621.94;5202029;28;20079;-70
2023/06/22 07:31:28;;;;;;;30.00;19.10;;;;;;;21.67;100.00;101613.28;5202266;28;20017;-70
2023/06/22 07:33:58;;;;;;;30.70;19.08;;;;;;;21.76;100.00;101607.56;5202119;28;20029;-70
2023/06/22 07:36:30;;;;;;;31.98;18.67;;;;;;;21.86;100.00;101605.16;5201348;28;20037;-70
2023/06/22 07:39:00;;;;;;;30.98;17.73;;;;;;;21.90;100.00;101606.38;5201654;28;20519;-71
2023/06/22 07:41:31;;;;;;;29.05;18.58;;;;;;;21.87;100.00;101591.28;5201847;28;20029;-70
2023/06/22 07:44:03;;;;;;;23.25;15.57;;;;;;;21.87;100.00;101591.28;5201905;28;20450;-71
2023/06/22 07:46:34;;;;;;;28.70;16.50;;;;;;;21.91;100.00;101584.31;5201303;28;20033;-70
2023/06/22 07:49:04;;;;;;;24.38;16.42;;;;;;;21.86;100.00;101595.06;5201706;28;20021;-70
2023/06/22 07:51:35;;;;;;;26.65;16.38;;;;;;;21.86;100.00;101592.34;5201246;28;20036;-70
2023/06/22 07:54:05;;;;;;;27.40;16.15;;;;;;;21.83;100.00;101592.75;5201745;28;20033;-70
2023/06/22 07:56:37;;;;;;;24.60;15.43;;;;;;;21.80;100.00;101582.31;5201164;28;20435;-70
2023/06/22 07:59:07;;;;;;;26.38;15.07;;;;;;;21.78;100.00;101597.22;5202324;28;20028;-70
2023/06/22 08:01:38;;;;;;;21.13;13.82;;;;;;;21.77;100.00;101601.84;5201291;28;20021;-70
2023/06/22 08:04:08;;;;;;;28.77;14.75;;;;;;;21.80;100.00;101606.88;5201370;28;20021;-71
2023/06/22 08:06:43;;;;;;;25.58;13.27;;;;;;;21.86;100.00;101594.22;5200904;28;20033;-71
2023/06/22 08:09:14;;;;;;;19.60;13.02;;;;;;;21.82;100.00;101598.47;5201437;28;20072;-71
2023/06/22 08:11:44;;;;;;;20.73;11.63;;;;;;;21.76;100.00;101586.53;5201486;28;20025;-70
2023/06/22 08:14:15;;;;;;;22.30;12.57;;;;;;;21.71;100.00;101586.38;5200708;28;20021;-70
2023/06/22 08:16:46;;;;;;;25.08;12.38;;;;;;;21.84;100.00;101589.00;5200878;28;20037;-70
2023/06/22 08:19:16;;;;;;;29.30;12.18;;;;;;;21.83;100.00;101586.47;5201554;28;20382;-71
2023/06/22 08:21:47;;;;;;;25.98;12.35;;;;;;;21.80;100.00;101584.19;5201654;28;20119;-71
2023/06/22 08:24:17;;;;;;;17.92;10.82;;;;;;;21.76;100.00;101586.53;5201213;28;20017;-70
2023/06/22 08:26:51;;;;;;;18.70;11.20;;;;;;;21.78;100.00;101595.34;5200394;28;20056;-70
2023/06/22 08:29:22;;;;;;;20.13;10.23;;;;;;;21.80;100.00;101593.22;5201632;28;20564;-71
2023/06/22 08:31:52;;;;;;;16.17;10.52;;;;;;;21.76;100.00;101585.69;5201358;28;20109;-71
2023/06/22 08:34:25;;;;;;;15.65;9.73;;;;;;;21.68;100.00;101584.06;5201140;28;20024;-71
2023/06/22 08:36:55;;;;;;;16.92;9.02;;;;;;;21.67;100.00;101591.44;5199627;28;20017;-71
2023/06/22 08:39:26;;;;;;;12.45;8.90;;;;;;;21.63;100.00;101584.72;5201159;28;20087;-71
2023/06/22 08:41:56;;;;;;;14.18;9.35;;;;;;;21.58;100.00;101591.91;5201489;28;20551;-71
2023/06/22 08:44:27;;;;;;;13.75;7.82;;;;;;;21.54;100.00;101583.34;5201026;28;20025;-71
2023/06/22 08:46:57;;;;;;;16.27;7.35;;;;;;;21.54;100.00;101580.63;5200978;28;20671;-70
2023/06/22 08:49:28;;;;;;;15.07;7.93;;;;;;;21.51;100.00;101574.75;5200888;28;20021;-71
2023/06/22 08:51:58;;;;;;;11.82;7.38;;;;;;;21.48;100.00;101567.84;5201126;28;20740;-71
2023/06/22 08:54:29;;;;;;;11.77;8.15;;;;;;;21.37;100.00;101569.38;5200811;28;20562;-70
2023/06/22 08:56:59;;;;;;;22.17;7.88;;;;;;;21.41;100.00;101562.44;5200851;28;20048;-70
2023/06/22 08:59:30;;;;;;;13.20;8.00;;;;;;;21.40;100.00;101563.50;5201325;28;20108;-71
2023/06/22 09:02:00;;;;;;;11.43;6.90;;;;;;;21.42;100.00;101560.53;5201261;28;20021;-70
2023/06/22 09:04:34;;;;;;;18.73;7.85;;;;;;;21.43;100.00;101565.75;5200978;28;20140;-70
2023/06/22 09:07:05;;;;;;;16.40;8.65;;;;;;;21.48;100.00;101569.72;5204603;28;20483;-71
2023/06/22 09:09:35;;;;;;;43.70;11.63;;;;;;;21.52;100.00;101570.97;5204999;28;20030;-70
2023/06/22 09:12:07;;;;;;;27.25;9.27;;;;;;;21.57;100.00;101571.97;5204803;28;20112;-71
2023/06/22 09:14:38;;;;;;;16.42;7.68;;;;;;;21.55;100.00;101574.09;5204345;28;20026;-70
2023/06/22 09:17:08;;;;;;;31.77;8.25;;;;;;;21.48;100.00;101584.22;5204209;28;20047;-71
2023/06/22 09:19:39;;;;;;;22.20;8.10;;;;;;;21.43;100.00;101590.34;5204863;28;20025;-70
2023/06/22 09:22:10;;;;;;;14.50;7.63;;;;;;;21.38;100.00;101590.16;5204564;28;20100;-70
2023/06/22 09:24:40;;;;;;;24.42;9.07;;;;;;;21.34;100.00;101590.84;5204690;28;20120;-71
2023/06/22 09:27:11;;;;;;;36.55;11.95;;;;;;;21.31;100.00;101603.03;5203676;28;20475;-71
2023/06/22 09:29:41;;;;;;;69.78;14.10;;;;;;;21.33;100.00;101603.63;5205036;28;20021;-71
2023/06/22 09:32:13;;;;;;;25.38;10.48;;;;;;;21.34;100.00;101609.94;5204512;28;20025;-70
2023/06/22 09:34:44;;;;;;;23.38;10.07;;;;;;;21.36;100.00;101611.38;5204344;28;20040;-70
2023/06/22 09:37:14;;;;;;;21.02;9.77;;;;;;;21.41;100.00;101619.75;5203873;28;20426;-71
2023/06/22 09:39:45;;;;;;;14.60;9.10;;;;;;;21.46;100.00;101616.38;5204280;28;20029;-71
2023/06/22 09:42:15;;;;;;;20.88;9.20;;;;;;;21.45;100.00;101625.63;5204366;28;20028;-71
2023/06/22 09:44:47;;;;;;;24.90;10.82;;;;;;;21.50;100.00;101624.97;5204055;28;20040;-71
2023/06/22 09:47:18;;;;;;;16.70;9.00;;;;;;;21.46;100.00;101628.13;5203843;28;20096;-72
2023/06/22 09:49:48;;;;;;;17.98;10.30;;;;;;;21.31;100.00;101643.13;5204179;28;20538;-71
2023/06/22 09:52:19;;;;;;;15.80;9.32;;;;;;;21.20;100.00;101653.63;5205487;28;20036;-72
2023/06/22 09:54:49;;;;;;;18.65;10.98;;;;;;;21.17;100.00;101658.69;5204791;28;20037;-72
2023/06/22 09:57:20;;;;;;;21.27;12.73;;;;;;;21.05;100.00;101674.06;5203774;28;20041;-72
2023/06/22 09:59:50;;;;;;;18.88;12.75;;;;;;;20.90;100.00;101675.16;5204194;28;20029;-72
2023/06/22 10:02:22;;;;;;;18.48;12.63;;;;;;;20.72;100.00;101690.50;5203879;28;20025;-72
2023/06/22 10:04:52;;;;;;;23.85;13.93;;;;;;;20.58;100.00;101690.56;5203557;28;20403;-72
2023/06/22 10:07:23;;;;;;;21.42;13.82;;;;;;;20.43;100.00;101704.38;5203221;28;20018;-72
2023/06/22 10:09:53;;;;;;;19.98;13.35;;;;;;;20.39;100.00;101714.00;5204160;28;20049;-72
2023/06/22 10:12:24;;;;;;;21.58;14.90;;;;;;;20.26;100.00;101708.56;5203309;28;20033;-72
2023/06/22 10:14:54;;;;;;;28.92;15.60;;;;;;;20.13;100.00;101713.97;5199910;28;20045;-72
2023/06/22 10:17:25;;;;;;;21.77;14.20;;;;;;;19.88;100.00;101720.06;5201600;28;20091;-72
2023/06/22 10:19:55;;;;;;;24.85;14.82;;;;;;;19.76;100.00;101718.13;5218675;28;20016;-72
2023/06/22 10:22:25;;;;;;;27.40;14.77;;;;;;;19.74;100.00;101717.50;5211206;28;20644;-72
2023/06/22 10:24:56;;;;;;;28.50;14.88;;;;;;;19.74;100.00;101709.34;5213656;28;20032;-72
2023/06/22 10:27:27;;;;;;;24.55;15.20;;;;;;;19.61;100.00;101691.91;5213941;28;20025;-72
2023/06/22 10:29:57;;;;;;;27.92;16.33;;;;;;;19.55;100.00;101683.72;5214496;28;20021;-72
2023/06/22 10:32:28;;;;;;;31.85;17.58;;;;;;;19.41;100.00;101677.38;5202726;28;20466;-72
2023/06/22 10:34:58;;;;;;;39.30;20.42;;;;;;;19.32;100.00;101682.16;5213180;28;20041;-72
2023/06/22 10:37:29;;;;;;;29.85;19.83;;;;;;;19.26;100.00;101691.13;5213615;28;20017;-72
2023/06/22 10:40:00;;;;;;;32.42;19.27;;;;;;;19.19;100.00;101694.88;5212016;28;20021;-72
2023/06/22 10:42:30;;;;;;;34.92;20.75;;;;;;;19.13;100.00;101697.38;5202075;28;20364;-72
2023/06/22 10:45:01;;;;;;;37.35;21.17;;;;;;;19.20;100.00;101691.13;5202074;28;20491;-72
2023/06/22 10:47:31;;;;;;;34.60;19.65;;;;;;;19.18;100.00;101676.88;5201748;28;20083;-72
2023/06/22 10:50:02;;;;;;;32.08;20.92;;;;;;;19.13;100.00;101667.47;5195881;28;20060;-72
2023/06/22 10:52:33;;;;;;;30.60;19.85;;;;;;;19.17;100.00;101656.16;5206889;28;20021;-73
2023/06/22 10:55:04;;;;;;;37.50;22.88;;;;;;;19.12;100.00;101645.88;5203368;28;20079;-72
2023/06/22 10:57:36;;;;;;;40.97;24.85;;;;;;;19.14;100.00;101646.53;5208518;28;20024;-72
2023/06/22 11:00:08;;;;;;;38.10;22.77;;;;;;;19.12;100.00;101635.84;5207127;28;20104;-72
2023/06/22 11:02:39;;;;;;;39.80;24.73;;;;;;;19.16;100.00;101630.84;5206256;28;20021;-72
2023/06/22 11:05:09;;;;;;;38.97;24.75;;;;;;;19.19;100.00;101626.88;5208927;28;20653;-72
2023/06/22 11:07:59;;;;;;;42.55;27.42;;;;;;;19.28;100.00;101620.22;5207315;28;20021;-71
2023/06/22 11:10:29;;;;;;;45.83;28.48;;;;;;;19.44;100.00;101610.84;5204817;28;20024;-72
2023/06/22 11:13:00;;;;;;;51.13;28.83;;;;;;;19.46;100.00;101603.28;5204566;28;20021;-72
2023/06/22 11:15:30;;;;;;;51.60;31.02;;;;;;;19.45;100.00;101605.19;5206235;28;20040;-72
2023/06/22 11:18:01;;;;;;;57.25;34.85;;;;;;;19.50;100.00;101593.69;5203524;28;20075;-72
2023/06/22 11:20:34;;;;;;;60.78;35.10;;;;;;;19.57;100.00;101595.34;5205693;28;20083;-72
2023/06/22 11:23:06;;;;;;;63.97;38.08;;;;;;;19.60;100.00;101583.25;5205753;28;20100;-72
2023/06/22 11:25:38;;;;;;;66.55;39.85;;;;;;;19.69;100.00;101583.91;5202690;28;20167;-72
2023/06/22 11:28:08;;;;;;;66.43;41.08;;;;;;;19.72;100.00;101565.25;5208205;28;20029;-72
2023/06/22 11:30:39;;;;;;;70.22;41.78;;;;;;;19.82;100.00;101570.28;5212552;28;20032;-72
2023/06/22 11:33:09;;;;;;;63.20;39.30;;;;;;;19.86;100.00;101564.19;5208916;28;20739;-72